createdAt,value
2023-01-04T01:22:45.681Z,0.52
2023-01-04T01:23:45.640Z,0.51
2023-01-04T01:24:45.607Z,0.50
2023-01-04T01:25:45.541Z,0.51
2023-01-04T01:26:45.523Z,0.51
2023-01-04T01:27:45.476Z,0.51
2023-01-04T01:28:45.441Z,0.50
2023-01-04T01:29:45.409Z,0.51
2023-01-04T01:30:45.371Z,0.50
2023-01-04T01:31:45.358Z,0.51
2023-01-04T01:32:45.262Z,0.51
2023-01-04T01:33:45.231Z,0.51
2023-01-04T01:34:45.201Z,0.51
2023-01-04T01:35:45.159Z,0.50
2023-01-04T01:36:45.145Z,0.52
2023-01-04T01:37:45.093Z,0.51
2023-01-04T01:38:45.039Z,0.51
2023-01-04T01:39:44.992Z,0.50
2023-01-04T01:40:44.949Z,0.51
2023-01-04T01:41:44.928Z,0.51
2023-01-04T01:42:44.868Z,0.51
2023-01-04T01:43:44.826Z,0.51
2023-01-04T01:44:44.804Z,0.51
2023-01-04T01:45:44.739Z,0.51
2023-01-04T01:46:44.785Z,0.50
2023-01-04T01:47:44.664Z,0.51
2023-01-04T01:48:44.634Z,0.51
2023-01-04T01:49:44.614Z,0.51
2023-01-04T01:50:44.564Z,0.51
2023-01-04T01:51:44.516Z,0.50
2023-01-04T01:52:44.473Z,0.50
2023-01-04T01:53:44.428Z,0.51
2023-01-04T01:54:44.444Z,0.51
2023-01-04T01:55:44.353Z,0.51
2023-01-04T01:56:44.304Z,0.51
2023-01-04T01:57:44.263Z,0.51
2023-01-04T01:58:44.215Z,0.51
2023-01-04T01:59:44.195Z,0.50
2023-01-04T02:00:44.132Z,0.52
2023-01-04T02:01:44.263Z,0.51
2023-01-04T02:02:44.354Z,0.51
2023-01-04T02:03:44.094Z,0.52
2023-01-04T02:04:44.017Z,0.51
2023-01-04T02:05:43.927Z,0.52
2023-01-04T02:06:43.898Z,0.52
2023-01-04T02:07:43.863Z,0.52
2023-01-04T02:08:43.818Z,0.51
2023-01-04T02:09:43.774Z,0.52
2023-01-04T02:10:43.768Z,0.52
2023-01-04T02:11:43.703Z,0.51
2023-01-04T02:12:43.656Z,0.51
2023-01-04T02:13:43.633Z,0.51
2023-01-04T02:14:43.586Z,0.51
2023-01-04T02:15:43.589Z,0.51
2023-01-04T02:16:43.500Z,0.51
2023-01-04T02:17:43.467Z,0.51
2023-01-04T02:18:43.416Z,0.52
2023-01-04T02:19:43.364Z,0.51
2023-01-04T02:20:43.340Z,0.51
2023-01-04T02:21:43.285Z,0.51
2023-01-04T02:22:43.241Z,0.51
2023-01-04T02:23:43.214Z,0.52
2023-01-04T02:24:43.177Z,0.51
2023-01-04T02:25:43.154Z,0.51
2023-01-04T02:26:43.097Z,0.52
2023-01-04T02:27:43.029Z,0.51
2023-01-04T02:28:43.018Z,0.52
2023-01-04T02:29:42.976Z,0.51
2023-01-04T02:30:42.930Z,0.51
2023-01-04T02:31:42.899Z,0.51
2023-01-04T02:32:42.839Z,0.51
2023-01-04T02:33:42.797Z,0.51
2023-01-04T02:34:42.758Z,0.51
2023-01-04T02:35:42.710Z,0.51
2023-01-04T02:36:42.664Z,0.51
2023-01-04T02:37:42.623Z,0.51
2023-01-04T02:38:42.613Z,0.51
2023-01-04T02:39:42.521Z,0.51
2023-01-04T02:40:42.503Z,0.51
2023-01-04T02:41:42.518Z,0.51
2023-01-04T02:42:42.396Z,0.52
2023-01-04T02:43:42.344Z,0.51
2023-01-04T02:44:42.314Z,0.51
2023-01-04T02:45:42.282Z,0.51
2023-01-04T02:46:42.292Z,0.51
2023-01-04T02:47:42.177Z,0.51
2023-01-04T02:48:42.151Z,0.51
2023-01-04T05:32:35.065Z,0.51
2023-01-04T05:55:34.059Z,0.50
2023-01-04T05:59:40.880Z,0.50
2023-01-04T06:08:33.522Z,0.51
2023-01-04T06:15:39.344Z,0.51
2023-01-04T06:16:34.632Z,0.51
2023-01-04T06:17:33.542Z,0.51
2023-01-04T06:29:33.058Z,0.51
2023-01-04T06:41:32.545Z,0.51
2023-01-04T06:42:32.505Z,0.50
2023-01-04T06:43:32.451Z,0.51
2023-01-04T06:44:32.405Z,0.51
2023-01-04T06:45:32.381Z,0.51
2023-01-04T06:46:32.404Z,0.50
2023-01-04T06:47:32.272Z,0.51
2023-01-04T06:48:32.216Z,0.50
2023-01-04T06:49:32.194Z,0.52
2023-01-04T06:50:32.135Z,0.50
2023-01-04T08:44:27.244Z,0.51
2023-01-04T08:45:27.187Z,0.51
2023-01-04T08:46:27.197Z,0.51
2023-01-04T08:47:27.136Z,0.51
2023-01-04T08:48:27.100Z,0.51
2023-01-04T08:49:27.125Z,0.51
2023-01-04T08:50:27.027Z,0.50
2023-01-04T08:51:26.976Z,0.52
2023-01-04T08:52:26.947Z,0.51
2023-01-04T08:53:26.893Z,0.51
2023-01-04T08:54:26.855Z,0.51
2023-01-04T08:55:26.821Z,0.51
2023-01-04T08:56:26.767Z,0.51
2023-01-04T08:57:26.752Z,0.52
2023-01-04T08:58:26.717Z,0.51
2023-01-04T08:59:26.666Z,0.51
2023-01-04T09:00:26.634Z,0.51
2023-01-04T09:01:26.777Z,0.51
2023-01-04T09:02:26.678Z,0.51
2023-01-04T09:03:26.547Z,0.52
2023-01-04T09:04:26.515Z,0.51
2023-01-04T09:05:26.401Z,0.52
2023-01-04T09:06:26.337Z,0.51
2023-01-04T09:07:26.300Z,0.52
2023-01-04T09:08:26.286Z,0.52
2023-01-04T09:09:26.219Z,0.52
2023-01-04T09:10:26.179Z,0.52
2023-01-04T09:11:26.138Z,0.52
2023-01-04T09:12:26.097Z,0.52
2023-01-04T09:13:26.089Z,0.52
2023-01-04T09:14:25.999Z,0.52
2023-01-04T09:15:25.962Z,0.51
2023-01-04T09:16:25.960Z,0.51
2023-01-04T09:17:25.888Z,0.51
2023-01-04T09:18:33.397Z,0.51
2023-01-04T09:19:26.791Z,0.51
2023-01-04T09:20:25.749Z,0.51
2023-01-04T09:21:25.701Z,0.51
2023-01-04T09:22:25.728Z,0.52
2023-01-04T09:23:25.615Z,0.52
2023-01-04T09:24:25.565Z,0.52
2023-01-04T09:25:25.524Z,0.50
2023-01-04T09:26:25.467Z,0.52
2023-01-04T09:27:25.411Z,0.52
2023-01-04T09:28:25.377Z,0.50
2023-01-04T09:29:25.329Z,0.52
2023-01-04T09:30:25.279Z,0.52
2023-01-04T09:31:25.303Z,0.53
2023-01-04T09:32:25.198Z,0.52
2023-01-04T09:33:47.679Z,0.52
2023-01-04T09:34:26.105Z,0.52
2023-01-04T09:35:25.059Z,0.52
2023-01-04T09:36:25.069Z,0.51
2023-01-04T09:37:24.984Z,0.52
2023-01-04T09:38:24.958Z,0.54
2023-01-04T09:39:24.872Z,0.51
2023-01-04T09:40:25.029Z,0.50
2023-01-04T09:41:24.815Z,0.51
2023-01-04T09:42:24.750Z,0.52
2023-01-04T09:43:24.752Z,0.50
2023-01-04T09:44:39.672Z,0.51
2023-01-04T09:45:25.883Z,0.52
2023-01-04T09:46:24.637Z,0.52
2023-01-04T09:47:24.518Z,0.52
2023-01-04T09:48:25.922Z,0.52
2023-01-04T09:49:24.424Z,0.52
2023-01-04T09:50:24.399Z,0.51
2023-01-04T09:51:24.312Z,0.51
2023-01-04T09:52:24.256Z,0.50
2023-01-04T09:53:24.269Z,0.51
2023-01-04T09:54:24.180Z,0.50
2023-01-04T09:55:38.862Z,0.51
2023-01-04T09:56:25.076Z,0.51
2023-01-04T09:57:24.042Z,0.51
2023-01-04T09:58:24.005Z,0.50
2023-01-04T09:59:23.933Z,0.50
2023-01-04T10:00:23.885Z,0.49
2023-01-04T10:01:23.921Z,0.50
2023-01-04T10:02:24.181Z,0.51
2023-01-04T10:03:23.911Z,0.51
2023-01-04T10:04:23.686Z,0.51
2023-01-04T10:05:23.577Z,0.50
2023-01-04T10:06:23.519Z,0.52
2023-01-04T10:07:23.472Z,0.52
2023-01-04T10:08:23.428Z,0.51
2023-01-04T10:09:23.391Z,0.52
2023-01-04T10:10:23.329Z,0.51
2023-01-04T10:11:23.262Z,0.51
2023-01-04T10:12:23.204Z,0.51
2023-01-04T10:13:23.158Z,0.50
2023-01-04T10:14:23.126Z,0.51
2023-01-04T10:15:23.048Z,0.51
2023-01-04T10:16:44.201Z,0.51
2023-01-04T10:17:55.100Z,0.51
2023-01-04T10:21:10.263Z,0.51
2023-01-04T10:21:33.101Z,0.51
2023-01-04T10:22:23.692Z,0.51
2023-01-04T10:23:22.768Z,0.52
2023-01-04T10:24:22.535Z,0.52
2023-01-04T10:25:22.461Z,0.53
2023-01-04T10:26:22.412Z,0.53
2023-01-04T10:27:22.349Z,0.55
2023-01-04T10:28:22.305Z,0.54
2023-01-04T10:29:22.222Z,0.53
2023-01-04T10:30:22.209Z,0.53
2023-01-04T10:31:40.550Z,0.53
2023-01-04T10:32:23.072Z,0.53
2023-01-04T11:39:17.847Z,0.56
2023-01-04T11:40:17.776Z,0.58
2023-01-04T11:41:17.673Z,0.57
2023-01-04T11:42:17.601Z,0.57
2023-01-04T11:43:17.513Z,0.58
2023-01-04T11:44:17.447Z,0.57
2023-01-04T11:45:17.379Z,0.57
2023-01-04T11:46:17.374Z,0.57
2023-01-04T11:47:17.202Z,0.58
2023-01-04T11:48:17.157Z,0.56
2023-01-04T11:49:17.075Z,0.57
2023-01-04T11:50:17.034Z,0.58
2023-01-04T11:51:17.321Z,0.56
2023-01-04T11:53:16.797Z,0.57
2023-01-04T11:54:16.738Z,0.56
2023-01-04T11:55:16.651Z,0.57
2023-01-04T11:56:16.599Z,0.56
2023-01-04T11:57:16.548Z,0.56
2023-01-04T11:58:16.471Z,0.55
2023-01-04T11:59:24.517Z,0.55
2023-01-04T12:00:17.312Z,0.55
2023-01-04T12:01:16.291Z,0.55
2023-01-04T12:02:28.838Z,0.55
2023-01-04T12:03:17.110Z,0.55
2023-01-04T12:04:16.046Z,0.55
2023-01-04T12:05:15.974Z,0.55
2023-01-04T12:06:15.896Z,0.55
2023-01-04T12:07:15.823Z,0.55
2023-01-04T12:08:15.760Z,0.54
2023-01-04T12:09:15.678Z,0.53
2023-01-04T12:10:15.620Z,0.53
2023-01-04T12:11:15.583Z,0.53
2023-01-04T12:12:16.085Z,0.53
2023-01-04T12:13:15.410Z,0.53
2023-01-04T12:14:15.361Z,0.52
2023-01-04T12:15:15.302Z,0.52
2023-01-04T12:16:15.227Z,0.52
2023-01-04T12:17:15.170Z,0.52
2023-01-04T12:18:15.098Z,0.51
2023-01-04T12:19:15.058Z,0.51
2023-01-04T12:20:19.112Z,0.51
2023-01-04T12:21:14.912Z,0.51
2023-01-04T12:22:14.833Z,0.51
2023-01-04T12:23:14.772Z,0.51
2023-01-04T12:24:14.698Z,0.50
2023-01-04T12:25:14.612Z,0.50
2023-01-04T12:26:14.581Z,0.50
2023-01-04T12:27:14.486Z,0.52
2023-01-04T12:28:19.234Z,0.50
2023-01-04T12:29:15.353Z,0.51
2023-01-04T12:30:14.301Z,0.51
2023-01-04T12:31:16.886Z,0.50
2023-01-04T12:32:15.186Z,0.51
2023-01-04T12:33:14.117Z,0.50
2023-01-04T12:34:14.071Z,0.50
2023-01-04T12:35:13.993Z,0.50
2023-01-04T12:36:13.936Z,0.49
2023-01-04T12:37:13.892Z,0.50
2023-01-04T12:38:13.810Z,0.50
2023-01-04T12:39:13.744Z,0.51
2023-01-04T12:40:13.703Z,0.51
2023-01-04T12:41:13.624Z,0.50
2023-01-04T12:42:13.564Z,0.51
2023-01-04T12:43:13.522Z,0.50
2023-01-04T12:44:13.446Z,0.50
2023-01-04T12:45:13.378Z,0.51
2023-01-04T12:46:13.366Z,0.51
2023-01-04T12:47:13.285Z,0.51
2023-01-04T12:48:13.202Z,0.52
2023-01-04T12:49:13.148Z,0.52
2023-01-04T12:50:13.106Z,0.52
2023-01-04T12:51:30.207Z,0.51
2023-01-04T12:52:34.356Z,0.51
2023-01-04T12:53:30.669Z,0.51
2023-01-04T12:54:13.838Z,0.51
2023-01-04T12:55:12.797Z,0.51
2023-01-04T12:56:12.683Z,0.51
2023-01-04T12:57:12.622Z,0.51
2023-01-04T12:58:12.589Z,0.52
2023-01-04T12:59:25.095Z,0.51
2023-01-04T13:00:13.431Z,0.51
2023-01-04T13:01:12.446Z,0.51
2023-01-04T13:02:12.450Z,0.51
2023-01-04T13:03:12.479Z,0.51
2023-01-04T13:04:12.227Z,0.51
2023-01-04T13:06:13.066Z,0.50
2023-01-04T14:58:06.148Z,0.53
2023-01-04T15:27:04.653Z,0.53
2023-01-04T15:28:04.633Z,0.55
2023-01-04T15:29:04.551Z,0.55
2023-01-04T15:30:04.496Z,0.55
2023-01-04T15:31:04.491Z,0.54
2023-01-04T15:32:04.435Z,0.53
2023-01-04T15:33:04.340Z,0.55
2023-01-04T15:34:04.277Z,0.52
2023-01-04T15:35:04.239Z,0.53
2023-01-04T15:36:04.163Z,0.53
2023-01-04T15:37:04.126Z,0.53
2023-01-04T15:38:06.491Z,0.53
2023-01-04T15:39:04.019Z,0.55
2023-01-04T15:40:04.180Z,0.51
2023-01-04T15:41:03.950Z,0.53
2023-01-04T15:42:03.864Z,0.53
2023-01-04T15:43:03.824Z,0.55
2023-01-04T15:44:03.774Z,0.55
2023-01-04T15:45:03.729Z,0.55
2023-01-04T15:46:03.710Z,0.55
2023-01-04T15:47:03.694Z,0.54
2023-01-04T15:48:03.565Z,0.55
2023-01-04T15:49:03.634Z,0.56
2023-01-04T15:50:03.472Z,0.55
2023-01-04T15:51:03.469Z,0.55
2023-01-04T15:52:03.386Z,0.54
2023-01-04T15:53:03.341Z,0.55
2023-01-04T15:54:03.286Z,0.52
2023-01-04T15:55:03.256Z,0.55
2023-01-04T15:56:03.209Z,0.55
2023-01-04T15:57:03.145Z,0.55
2023-01-04T15:58:03.084Z,0.54
2023-01-04T15:59:03.062Z,0.53
2023-01-04T16:00:02.995Z,0.54
2023-01-04T16:01:06.676Z,0.54
2023-01-04T16:02:03.045Z,0.54
2023-01-04T16:03:02.907Z,0.54
2023-01-04T16:04:02.825Z,0.54
2023-01-04T16:05:02.754Z,0.54
2023-01-04T16:06:02.720Z,0.55
2023-01-04T16:07:02.679Z,0.53
2023-01-04T16:08:02.611Z,0.54
2023-01-04T16:09:02.585Z,0.55
2023-01-04T16:10:02.616Z,0.54
2023-01-04T16:11:02.505Z,0.54
2023-01-04T16:12:02.445Z,0.55
2023-01-04T16:13:02.396Z,0.54
2023-01-04T16:14:02.344Z,0.53
2023-01-04T16:15:02.313Z,0.54
2023-01-04T16:16:02.365Z,0.55
2023-01-04T16:17:02.223Z,0.53
2023-01-04T16:18:02.160Z,0.55
2023-01-04T16:19:02.118Z,0.55
2023-01-04T18:28:56.289Z,0.53
2023-01-04T18:29:56.472Z,0.54
2023-01-04T18:30:56.188Z,0.54
2023-01-04T18:31:56.187Z,0.54
2023-01-04T18:32:56.111Z,0.54
2023-01-04T18:33:56.075Z,0.54
2023-01-04T18:34:56.009Z,0.54
2023-01-04T18:35:55.999Z,0.53
2023-01-04T18:36:55.941Z,0.54
2023-01-04T18:37:55.897Z,0.54
2023-01-04T18:38:55.871Z,0.55
2023-01-04T18:39:55.821Z,0.54
2023-01-04T18:40:55.759Z,0.54
2023-01-04T18:41:55.722Z,0.54
2023-01-04T18:42:55.688Z,0.53
2023-01-04T18:44:13.204Z,0.54
2023-01-04T18:44:56.609Z,0.54
2023-01-04T18:45:55.623Z,0.54
2023-01-04T18:46:55.536Z,0.54
2023-01-04T18:47:55.520Z,0.53
2023-01-04T18:48:55.486Z,0.54
2023-01-04T18:49:55.469Z,0.54
2023-01-04T18:50:55.402Z,0.54
2023-01-04T18:51:55.382Z,0.54
2023-01-04T18:52:55.312Z,0.53
2023-01-04T18:53:55.313Z,0.54
2023-01-04T18:54:55.236Z,0.53
2023-01-04T18:55:55.199Z,0.54
2023-01-04T18:57:00.654Z,0.54
2023-01-04T18:57:55.131Z,0.54
2023-01-04T18:58:55.113Z,0.54
2023-01-04T18:59:55.038Z,0.54
2023-01-04T19:00:55.053Z,0.54
2023-01-04T19:01:55.088Z,0.53
2023-01-04T19:02:54.962Z,0.54
2023-01-04T19:03:54.874Z,0.53
2023-01-04T19:04:54.830Z,0.54
2023-01-04T19:05:54.797Z,0.53
2023-01-04T19:06:54.780Z,0.54
2023-01-04T19:07:54.743Z,0.54
2023-01-04T19:08:58.146Z,0.54
2023-01-04T19:09:55.635Z,0.54
2023-01-04T19:10:54.710Z,0.54
2023-01-04T19:11:54.550Z,0.54
2023-01-04T19:12:54.505Z,0.54
2023-01-04T19:13:54.467Z,0.54
2023-01-04T19:14:54.426Z,0.54
2023-01-04T19:15:54.379Z,0.53
2023-01-04T19:16:54.371Z,0.54
2023-01-04T19:17:54.299Z,0.54
2023-01-04T19:18:54.260Z,0.54
2023-01-04T19:19:54.251Z,0.54
2023-01-04T19:20:54.212Z,0.54
2023-01-04T19:21:54.146Z,0.54
2023-01-04T19:22:54.111Z,0.53
2023-01-04T19:23:54.056Z,0.54
2023-01-04T19:24:54.033Z,0.54
2023-01-04T19:25:53.989Z,0.53
2023-01-04T19:26:53.937Z,0.54
2023-01-04T19:27:53.906Z,0.53
2023-01-04T19:28:53.856Z,0.53
2023-01-04T19:29:53.841Z,0.53
2023-01-04T19:30:53.840Z,0.54
2023-01-04T19:31:53.756Z,0.54
2023-01-04T19:32:53.719Z,0.53
2023-01-04T19:33:53.709Z,0.54
2023-01-04T19:34:53.682Z,0.53
2023-01-04T19:35:53.628Z,0.54
2023-01-04T19:36:53.577Z,0.53
2023-01-04T19:37:53.540Z,0.53
2023-01-04T19:38:53.495Z,0.53
2023-01-04T19:39:53.480Z,0.53
2023-01-04T19:40:53.437Z,0.54
2023-01-04T19:41:53.390Z,0.54
2023-01-04T19:42:53.345Z,0.53
2023-01-04T19:43:53.322Z,0.54
2023-01-04T19:44:53.273Z,0.53
2023-01-04T19:45:53.272Z,0.53
2023-01-04T19:46:53.176Z,0.54
2023-01-04T19:47:53.130Z,0.53
2023-01-04T19:48:53.100Z,0.54
2023-01-04T19:49:53.056Z,0.54
2023-01-04T19:50:53.012Z,0.54
2023-01-04T19:51:52.949Z,0.53
2023-01-04T19:52:52.907Z,0.53
2023-01-04T19:53:52.884Z,0.53
2023-01-04T19:54:52.831Z,0.53
2023-01-04T19:55:52.781Z,0.52
2023-01-04T19:56:52.744Z,0.54
2023-01-04T19:57:52.721Z,0.53
2023-01-04T19:58:52.680Z,0.52
2023-01-04T19:59:52.652Z,0.53
2023-01-04T20:00:55.093Z,0.53
2023-01-04T20:01:52.656Z,0.53
2023-01-04T20:02:52.644Z,0.53
2023-01-04T20:03:52.520Z,0.53
2023-01-04T20:04:52.551Z,0.53
2023-01-04T20:05:52.394Z,0.53
2023-01-04T20:06:52.355Z,0.53
2023-01-04T20:07:52.320Z,0.54
2023-01-04T20:08:52.301Z,0.53
2023-01-04T20:09:52.257Z,0.53
2023-01-04T20:10:52.206Z,0.53
2023-01-04T20:11:52.167Z,0.53
2023-01-04T20:12:52.134Z,0.53
2023-01-04T22:10:47.161Z,0.52
2023-01-04T22:12:47.074Z,0.52
2023-01-04T22:13:47.025Z,0.51
2023-01-04T22:14:46.988Z,0.52
2023-01-04T22:15:47.005Z,0.52
2023-01-04T22:16:46.881Z,0.51
2023-01-04T22:17:46.891Z,0.52
2023-01-04T22:18:46.802Z,0.52
2023-01-04T22:19:46.794Z,0.52
2023-01-04T22:20:46.749Z,0.51
2023-01-04T22:21:46.703Z,0.51
2023-01-04T22:22:46.647Z,0.51
2023-01-04T22:23:46.585Z,0.52
2023-01-04T22:24:46.537Z,0.51
2023-01-04T22:25:46.533Z,0.51
2023-01-04T22:26:46.475Z,0.52
2023-01-04T22:27:46.462Z,0.51
2023-01-04T22:28:46.376Z,0.51
2023-01-04T22:29:46.352Z,0.51
2023-01-04T22:30:46.307Z,0.51
2023-01-04T22:31:46.285Z,0.51
2023-01-04T22:32:46.212Z,0.52
2023-01-04T22:33:46.178Z,0.51
2023-01-04T22:34:46.165Z,0.51
2023-01-04T22:35:46.117Z,0.51
2023-01-04T22:36:46.052Z,0.52
2023-01-04T22:37:46.009Z,0.51
2023-01-04T22:38:45.975Z,0.51
2023-01-04T22:39:45.927Z,0.51
2023-01-04T22:40:45.889Z,0.50
2023-01-04T22:41:45.856Z,0.51
2023-01-04T22:42:45.804Z,0.52
2023-01-04T22:43:45.746Z,0.52
2023-01-04T22:44:45.699Z,0.52
2023-01-04T22:45:45.667Z,0.51
2023-01-04T22:46:45.735Z,0.51
2023-01-04T22:47:45.608Z,0.51
2023-01-04T22:48:45.587Z,0.52
2023-01-04T22:49:45.518Z,0.51
2023-01-04T22:50:45.469Z,0.51
2023-01-04T22:51:45.425Z,0.52
2023-01-04T22:52:50.825Z,0.51
2023-01-04T22:54:45.293Z,0.51
2023-01-04T22:56:17.514Z,0.51
2023-01-04T22:57:45.201Z,0.51
2023-01-04T22:58:51.726Z,0.51
2023-01-04T22:59:45.118Z,0.51
2023-01-04T23:00:45.080Z,0.51
2023-01-04T23:01:45.034Z,0.51
2023-01-04T23:02:45.006Z,0.52
2023-01-04T23:03:45.036Z,0.52
2023-01-04T23:04:44.912Z,0.51
2023-01-04T23:05:44.888Z,0.51
2023-01-04T23:06:44.836Z,0.52
2023-01-04T23:07:44.800Z,0.51
2023-01-04T23:08:44.771Z,0.51
2023-01-04T23:09:44.707Z,0.51
2023-01-04T23:10:44.673Z,0.52
2023-01-04T23:11:44.633Z,0.52
2023-01-04T23:12:44.588Z,0.51
2023-01-04T23:13:44.560Z,0.51
2023-01-04T23:14:44.513Z,0.52
2023-01-04T23:15:44.466Z,0.51
2023-01-04T23:16:44.533Z,0.51
2023-01-04T23:17:44.382Z,0.51
2023-01-04T23:18:44.344Z,0.51
2023-01-04T23:19:44.309Z,0.51
2023-01-04T23:20:44.268Z,0.52
2023-01-04T23:21:44.228Z,0.51
2023-01-04T23:22:44.179Z,0.50
2023-01-04T23:23:44.149Z,0.51
2023-01-04T23:24:44.102Z,0.50
2023-01-04T23:25:44.061Z,0.51
2023-01-04T23:26:44.020Z,0.51
2023-01-04T23:27:43.984Z,0.51
2023-01-04T23:28:43.966Z,0.51
2023-01-04T23:29:43.929Z,0.51
2023-01-04T23:30:43.866Z,0.51
2023-01-04T23:31:43.858Z,0.52
2023-01-04T23:32:43.771Z,0.51
2023-01-04T23:33:43.757Z,0.51
2023-01-04T23:34:43.693Z,0.51
2023-01-04T23:35:43.634Z,0.52
2023-01-04T23:36:43.611Z,0.51
2023-01-04T23:37:43.574Z,0.51
2023-01-04T23:38:43.507Z,0.51
2023-01-04T23:39:43.464Z,0.51
2023-01-04T23:40:43.429Z,0.51
2023-01-04T23:41:43.381Z,0.51
2023-01-04T23:42:43.322Z,0.51
2023-01-04T23:43:43.280Z,0.51
2023-01-04T23:44:43.236Z,0.51
2023-01-04T23:45:43.199Z,0.50
2023-01-04T23:46:43.137Z,0.51
2023-01-04T23:47:43.089Z,0.51
2023-01-04T23:48:43.047Z,0.51
2023-01-04T23:49:42.990Z,0.52
2023-01-04T23:50:42.935Z,0.51
2023-01-04T23:51:42.977Z,0.51
2023-01-04T23:52:42.868Z,0.51
2023-01-04T23:53:42.817Z,0.51
2023-01-04T23:54:42.879Z,0.51
2023-01-04T23:55:42.735Z,0.51
2023-01-04T23:56:42.718Z,0.51
2023-01-04T23:57:42.663Z,0.51
2023-01-04T23:58:42.626Z,0.52
2023-01-04T23:59:42.585Z,0.51
